Time;durP1;ratioP1;P1;durP2;ratioP2;P2;SDS_P1;SDS_P2;PMS_P1;PMS_P2;Temp;Humidity;BMP_temperature;BMP_pressure;BME280_temperature;BME280_humidity;BME280_pressure;Samples;Min_cycle;Max_cycle;Signal;HPM_P1;HPM_P2
2022/03/10 00:00:00;;;;;;;3.33;2.37;;;;;;;0.52;55.96;100147.05;1730940;82;21027;-66
2022/03/10 00:02:29;;;;;;;2.52;2.33;;;;;;;0.50;55.98;100145.81;1744088;82;20891;-67
2022/03/10 00:04:56;;;;;;;2.58;2.37;;;;;;;0.50;56.00;100156.28;1711502;82;20946;-67
2022/03/10 00:07:23;;;;;;;4.03;2.37;;;;;;;0.53;55.96;100148.25;1736634;82;21245;-65
2022/03/10 00:09:50;;;;;;;2.98;2.67;;;;;;;0.57;55.75;100154.16;1736299;82;20911;-66
2022/03/10 00:12:19;;;;;;;2.55;2.35;;;;;;;0.59;55.70;100149.67;1734495;82;21493;-66
2022/03/10 00:14:47;;;;;;;3.40;2.30;;;;;;;0.63;55.54;100157.70;1731056;82;20986;-67
2022/03/10 00:17:14;;;;;;;3.83;2.30;;;;;;;0.65;55.37;100161.09;1733670;82;21544;-66
2022/03/10 00:19:43;;;;;;;2.62;2.42;;;;;;;0.66;55.18;100163.22;1725950;81;22094;-67
2022/03/10 00:22:11;;;;;;;3.10;2.30;;;;;;;0.68;54.96;100160.06;1716087;82;20939;-66
2022/03/10 00:24:39;;;;;;;2.45;2.25;;;;;;;0.68;54.86;100168.73;1716882;82;21024;-67
2022/03/10 00:27:08;;;;;;;3.10;2.70;;;;;;;0.67;54.78;100169.70;1718687;81;20970;-67
2022/03/10 00:29:35;;;;;;;2.37;2.08;;;;;;;0.69;54.70;100167.82;1716911;82;20981;-66
2022/03/10 00:32:03;;;;;;;3.17;2.62;;;;;;;0.68;54.55;100171.36;1722662;82;21268;-66
2022/03/10 00:34:31;;;;;;;3.10;2.55;;;;;;;0.64;54.58;100176.42;1736696;82;20931;-66
2022/03/10 00:36:59;;;;;;;3.15;2.62;;;;;;;0.63;54.66;100180.45;1710484;82;21014;-68
2022/03/10 00:39:27;;;;;;;3.17;2.27;;;;;;;0.61;54.70;100175.28;1719753;82;20987;-68
2022/03/10 00:41:54;;;;;;;3.25;2.92;;;;;;;0.56;54.91;100178.64;1729402;82;20978;-67
2022/03/10 00:44:21;;;;;;;3.50;3.20;;;;;;;0.48;55.05;100180.41;1720471;81;21397;-66
2022/03/10 00:46:49;;;;;;;3.92;2.75;;;;;;;0.44;55.26;100183.30;1760643;80;20971;-66
2022/03/10 00:49:16;;;;;;;3.00;2.37;;;;;;;0.40;55.39;100180.02;1766410;80;20995;-67
2022/03/10 00:51:45;;;;;;;3.20;2.37;;;;;;;0.36;55.52;100182.91;1740887;80;20941;-67
2022/03/10 00:54:12;;;;;;;3.50;3.15;;;;;;;0.31;55.72;100182.33;1744876;80;20861;-65
2022/03/10 00:56:39;;;;;;;4.72;2.98;;;;;;;0.23;55.88;100181.47;1773591;80;21225;-67
2022/03/10 00:59:06;;;;;;;3.20;2.70;;;;;;;0.15;56.07;100182.83;1761791;80;21004;-67
2022/03/10 01:01:35;;;;;;;3.30;2.98;;;;;;;0.11;56.08;100185.23;1756764;79;21084;-68
2022/03/10 01:04:03;;;;;;;3.42;2.65;;;;;;;0.05;56.08;100190.38;1702581;82;20935;-70
2022/03/10 01:06:30;;;;;;;2.98;2.50;;;;;;;-0.07;56.19;100188.43;1691214;84;21617;-66
2022/03/10 01:08:58;;;;;;;3.55;2.60;;;;;;;-0.12;56.14;100187.39;1697600;83;22095;-69
2022/03/10 01:11:25;;;;;;;3.65;2.80;;;;;;;-0.17;56.07;100188.57;1705952;83;21085;-65
2022/03/10 01:13:54;;;;;;;3.52;3.00;;;;;;;-0.22;55.91;100194.53;1691872;83;21042;-66
2022/03/10 01:16:21;;;;;;;3.90;3.27;;;;;;;-0.27;55.72;100192.63;1693487;83;20953;-66
2022/03/10 01:18:48;;;;;;;3.62;2.83;;;;;;;-0.32;55.66;100198.12;1715911;83;20960;-66
2022/03/10 01:21:16;;;;;;;3.05;2.47;;;;;;;-0.36;55.55;100197.05;1715352;83;21246;-66
2022/03/10 01:23:43;;;;;;;3.40;2.87;;;;;;;-0.40;55.53;100198.16;1707197;83;20893;-66
2022/03/10 01:26:10;;;;;;;4.12;2.60;;;;;;;-0.44;55.48;100195.34;1693119;83;21413;-66
2022/03/10 01:28:37;;;;;;;4.00;2.42;;;;;;;-0.46;55.48;100202.41;1694002;83;21083;-67
2022/03/10 01:31:12;;;;;;;3.08;2.58;;;;;;;-0.52;55.51;100197.05;1715404;83;21002;-67
2022/03/10 01:33:41;;;;;;;2.90;2.55;;;;;;;-0.53;55.44;100201.05;1692042;83;21441;-66
2022/03/10 01:36:08;;;;;;;3.72;3.10;;;;;;;-0.65;55.65;100193.41;1750078;80;21497;-67
2022/03/10 01:38:42;;;;;;;3.15;2.58;;;;;;;-0.70;55.80;100215.02;1744139;81;21039;-65
2022/03/10 01:41:09;;;;;;;4.67;3.10;;;;;;;-0.72;55.77;100211.66;1729822;82;20924;-67
2022/03/10 01:44:09;;;;;;;3.65;2.70;;;;;;;-0.73;55.80;100213.42;1747915;81;20986;-66
2022/03/10 01:46:37;;;;;;;4.58;3.37;;;;;;;-0.73;55.57;100227.78;1761157;80;21153;-67
2022/03/10 01:49:06;;;;;;;4.28;3.20;;;;;;;-0.84;55.32;100212.31;1773654;80;21572;-66
2022/03/10 01:51:34;;;;;;;4.12;3.20;;;;;;;-0.85;55.52;100218.00;1766014;80;21541;-68
2022/03/10 01:54:03;;;;;;;3.20;2.80;;;;;;;-0.83;55.28;100224.44;1748762;80;21422;-66
2022/03/10 01:56:31;;;;;;;3.90;3.17;;;;;;;-0.83;55.28;100224.44;1748586;80;21097;-65
2022/03/10 01:58:58;;;;;;;3.58;2.65;;;;;;;-0.91;55.75;100231.83;1773769;80;21461;-66
2022/03/10 02:01:26;;;;;;;3.27;2.70;;;;;;;-0.91;55.75;100231.83;1769964;80;20903;-67
2022/03/10 02:03:55;;;;;;;2.47;2.02;;;;;;;-0.92;55.79;100232.77;1746109;80;20879;-66
2022/03/10 02:06:22;;;;;;;3.37;2.65;;;;;;;-0.96;55.99;100237.30;1770688;80;20991;-67
2022/03/10 02:11:34;;;;;;;4.87;3.20;;;;;;;-0.94;56.20;100248.50;1744860;80;21281;-66
2022/03/10 02:17:19;;;;;;;3.83;2.65;;;;;;;-1.00;56.38;100254.06;1744712;80;20932;-66
2022/03/10 02:17:33;;;;;;;3.83;2.58;;;;;;;-1.02;56.50;100261.14;1746034;80;20986;-66
2022/03/10 02:19:10;;;;;;;3.80;3.12;;;;;;;-1.03;56.57;100271.20;1714408;82;21428;-66
2022/03/10 02:21:38;;;;;;;5.10;3.15;;;;;;;-1.10;56.96;100270.28;1762109;80;21465;-65
2022/03/10 02:24:07;;;;;;;4.10;3.17;;;;;;;-1.10;56.96;100270.28;1773344;80;20935;-66
2022/03/10 02:26:34;;;;;;;4.42;3.10;;;;;;;-1.12;56.89;100266.42;1761117;80;21493;-67
2022/03/10 02:29:02;;;;;;;3.60;2.83;;;;;;;-1.10;56.93;100275.05;1762061;80;20935;-68
2022/03/10 02:31:29;;;;;;;5.10;3.12;;;;;;;-1.08;56.90;100277.57;1758627;80;20986;-65
2022/03/10 02:33:56;;;;;;;3.70;2.80;;;;;;;-1.14;56.95;100277.87;1766166;81;21113;-65
2022/03/10 02:36:24;;;;;;;4.45;3.05;;;;;;;-1.15;56.98;100280.13;1750751;80;21570;-67
2022/03/10 02:38:51;;;;;;;7.03;3.17;;;;;;;-1.18;56.95;100284.19;1744754;80;21036;-65
2022/03/10 02:41:18;;;;;;;5.42;3.47;;;;;;;-1.24;56.84;100289.25;1743053;82;21039;-66
2022/03/10 02:43:45;;;;;;;3.95;3.22;;;;;;;-1.24;56.84;100289.25;1742350;82;21040;-66
2022/03/10 02:46:12;;;;;;;4.30;3.25;;;;;;;-1.26;56.98;100293.71;1757317;80;20932;-67
2022/03/10 02:48:39;;;;;;;4.33;3.42;;;;;;;-1.26;56.90;100295.87;1755946;80;21995;-66
2022/03/10 02:51:07;;;;;;;3.35;2.90;;;;;;;-1.28;56.90;100301.59;1761431;80;20919;-66
2022/03/10 02:53:34;;;;;;;2.80;2.52;;;;;;;-1.28;56.92;100300.78;1773365;80;20991;-66
2022/03/10 02:56:01;;;;;;;3.98;2.47;;;;;;;-1.26;56.96;100310.69;1772898;80;21407;-66
2022/03/10 02:58:28;;;;;;;4.72;2.85;;;;;;;-1.20;57.10;100309.53;1740040;80;21608;-66
2022/03/10 03:00:55;;;;;;;7.55;3.77;;;;;;;-1.20;57.10;100309.53;1751002;80;21211;-66
2022/03/10 03:03:22;;;;;;;5.35;2.85;;;;;;;-1.16;56.91;100314.98;1749132;80;20908;-65
2022/03/10 03:05:48;;;;;;;4.22;2.75;;;;;;;-1.10;56.89;100318.14;1765394;80;20980;-68
2022/03/10 03:08:15;;;;;;;4.10;2.87;;;;;;;-1.05;56.79;100317.91;1753308;80;21015;-66
2022/03/10 03:10:43;;;;;;;4.15;2.75;;;;;;;-1.00;56.65;100326.34;1753637;80;21487;-66
2022/03/10 03:13:10;;;;;;;4.35;3.10;;;;;;;-0.98;56.37;100333.64;1744421;80;22015;-65
2022/03/10 03:15:38;;;;;;;3.85;2.80;;;;;;;-0.98;56.37;100333.64;1773703;80;21524;-66
2022/03/10 03:18:05;;;;;;;3.98;2.92;;;;;;;-1.01;56.33;100330.72;1756568;80;21044;-64
2022/03/10 03:20:32;;;;;;;4.92;3.02;;;;;;;-1.04;56.27;100333.48;1744984;80;21544;-65
2022/03/10 03:23:00;;;;;;;4.62;3.15;;;;;;;-1.04;56.23;100340.01;1766638;80;21489;-67
2022/03/10 03:25:28;;;;;;;3.92;3.30;;;;;;;-1.09;56.06;100339.39;1773164;80;21235;-66
2022/03/10 03:27:55;;;;;;;4.53;3.05;;;;;;;-1.16;56.02;100347.61;1759739;80;21576;-65
2022/03/10 03:30:22;;;;;;;5.28;2.80;;;;;;;-1.22;56.11;100353.13;1743807;81;21395;-67
2022/03/10 03:32:49;;;;;;;4.47;3.47;;;;;;;-1.30;56.10;100345.22;1763799;80;21035;-66
2022/03/10 03:35:16;;;;;;;4.83;3.72;;;;;;;-1.36;56.13;100355.98;1771998;80;20991;-66
2022/03/10 03:37:43;;;;;;;4.08;2.92;;;;;;;-1.41;56.28;100357.12;1745554;80;21274;-65
2022/03/10 03:40:11;;;;;;;3.50;3.20;;;;;;;-1.45;56.32;100362.94;1743934;82;20913;-68
2022/03/10 03:42:39;;;;;;;4.45;2.90;;;;;;;-1.45;56.35;100362.94;1744496;80;20896;-67
2022/03/10 03:45:08;;;;;;;4.58;3.35;;;;;;;-1.47;56.37;100368.70;1767841;80;20920;-65
2022/03/10 03:47:35;;;;;;;3.92;3.45;;;;;;;-1.46;56.39;100379.98;1730887;81;21014;-66
2022/03/10 03:50:04;;;;;;;4.45;3.40;;;;;;;-1.47;56.33;100379.59;1732586;82;21306;-66
2022/03/10 03:52:31;;;;;;;4.08;3.22;;;;;;;-1.50;56.23;100384.95;1745208;81;20975;-67
2022/03/10 03:54:59;;;;;;;4.10;3.45;;;;;;;-1.55;56.34;100385.63;1758342;81;20961;-66
2022/03/10 03:57:26;;;;;;;3.05;2.72;;;;;;;-1.59;56.43;100384.92;1743481;81;21562;-65
2022/03/10 03:59:54;;;;;;;3.70;3.10;;;;;;;-1.66;56.48;100383.52;1751214;81;20868;-64
2022/03/10 04:02:21;;;;;;;3.77;2.85;;;;;;;-1.65;56.51;100396.12;1746630;81;21240;-65
2022/03/10 04:04:47;;;;;;;4.47;3.55;;;;;;;-1.67;56.45;100395.34;1750980;81;20975;-66
2022/03/10 04:07:15;;;;;;;4.45;3.35;;;;;;;-1.69;56.49;100403.69;1760914;81;20979;-67
2022/03/10 04:09:42;;;;;;;4.40;3.45;;;;;;;-1.71;56.47;100400.30;1747117;81;21420;-66
2022/03/10 04:12:09;;;;;;;5.10;3.80;;;;;;;-1.74;56.45;100410.88;1732214;81;20968;-66
2022/03/10 04:14:37;;;;;;;5.85;3.62;;;;;;;-1.80;56.49;100406.81;1734477;81;21276;-66
2022/03/10 04:17:05;;;;;;;5.00;3.80;;;;;;;-1.84;56.56;100414.83;1761358;81;21580;-67
2022/03/10 04:19:32;;;;;;;4.65;3.98;;;;;;;-1.90;56.67;100418.11;1682178;85;21573;-67
2022/03/10 04:22:00;;;;;;;4.75;3.45;;;;;;;-1.90;56.67;100418.11;1740172;81;20979;-66
2022/03/10 04:24:29;;;;;;;5.85;3.87;;;;;;;-1.93;56.71;100420.03;1745375;81;21053;-66
2022/03/10 04:26:56;;;;;;;5.03;3.25;;;;;;;-1.95;56.75;100420.08;1760766;81;21547;-66
2022/03/10 04:29:23;;;;;;;4.20;3.40;;;;;;;-1.96;56.77;100424.92;1758360;81;21462;-64
2022/03/10 04:31:50;;;;;;;4.58;3.62;;;;;;;-2.00;56.85;100429.02;1743390;81;20952;-67
2022/03/10 04:34:17;;;;;;;4.53;3.52;;;;;;;-2.03;56.88;100429.15;1748539;81;20970;-67
2022/03/10 04:36:45;;;;;;;3.87;3.35;;;;;;;-2.03;57.01;100433.06;1742881;81;20946;-66
2022/03/10 04:39:12;;;;;;;5.00;3.42;;;;;;;-2.05;57.01;100435.75;1756850;81;21265;-65
2022/03/10 04:41:39;;;;;;;5.37;4.17;;;;;;;-2.07;57.04;100443.25;1743762;81;20927;-66
2022/03/10 04:44:06;;;;;;;4.95;3.67;;;;;;;-2.11;57.12;100439.92;1741576;81;21031;-66
2022/03/10 04:46:33;;;;;;;4.58;3.33;;;;;;;-2.13;57.06;100442.21;1749850;81;20932;-65
2022/03/10 04:49:00;;;;;;;6.08;3.80;;;;;;;-2.18;57.13;100446.33;1744095;80;21372;-67
2022/03/10 04:51:27;;;;;;;4.90;3.98;;;;;;;-2.19;57.27;100449.84;1733343;81;21230;-66
2022/03/10 04:53:56;;;;;;;5.90;4.33;;;;;;;-2.20;57.43;100451.23;1729522;82;21019;-67
2022/03/10 04:56:23;;;;;;;5.47;3.62;;;;;;;-2.16;57.57;100454.92;1735008;81;20924;-68
2022/03/10 04:58:50;;;;;;;4.95;3.72;;;;;;;-2.07;57.61;100456.30;1757271;81;20913;-65
2022/03/10 05:01:17;;;;;;;4.08;3.22;;;;;;;-1.97;57.58;100465.40;1684959;84;20952;-68
2022/03/10 05:03:45;;;;;;;6.47;4.10;;;;;;;-1.86;57.58;100465.78;1690446;83;21257;-66
2022/03/10 05:06:12;;;;;;;4.92;3.77;;;;;;;-1.74;57.42;100464.36;1737648;81;20853;-66
2022/03/10 05:08:40;;;;;;;4.25;3.47;;;;;;;-1.70;57.13;100468.09;1741838;81;21456;-66
2022/03/10 05:11:07;;;;;;;4.33;3.45;;;;;;;-1.70;57.00;100469.84;1731330;81;21552;-67
2022/03/10 05:13:35;;;;;;;6.17;3.65;;;;;;;-1.65;56.88;100477.86;1757518;81;21035;-66
2022/03/10 05:16:02;;;;;;;4.67;3.67;;;;;;;-1.62;56.79;100479.03;1758131;81;21159;-65
2022/03/10 05:18:29;;;;;;;5.80;3.15;;;;;;;-1.60;56.67;100487.63;1730203;81;21500;-66
2022/03/10 05:20:58;;;;;;;5.53;4.12;;;;;;;-1.56;56.64;100490.92;1746670;81;21502;-65
2022/03/10 05:23:25;;;;;;;4.80;3.30;;;;;;;-1.52;56.63;100495.10;1747470;81;21690;-66
2022/03/10 05:25:54;;;;;;;4.95;3.60;;;;;;;-1.46;56.56;100496.95;1746875;81;21387;-64
2022/03/10 05:28:22;;;;;;;4.20;3.42;;;;;;;-1.31;56.70;100501.95;1749496;81;20828;-65
2022/03/10 05:30:50;;;;;;;5.58;3.58;;;;;;;-1.00;56.79;100515.26;1741410;81;21533;-66
2022/03/10 05:33:17;;;;;;;4.95;3.80;;;;;;;-0.60;56.39;100516.81;1729358;81;21544;-66
2022/03/10 05:35:44;;;;;;;5.10;3.67;;;;;;;0.00;54.92;100516.80;1728118;81;20928;-69
2022/03/10 05:38:11;;;;;;;4.10;3.37;;;;;;;0.00;54.92;100516.80;1755338;81;20880;-66
2022/03/10 05:40:43;;;;;;;6.42;4.05;;;;;;;0.15;53.89;100529.09;1742904;81;21253;-67
2022/03/10 05:43:12;;;;;;;5.40;3.83;;;;;;;0.22;53.30;100521.75;1688652;83;20952;-65
2022/03/10 05:45:39;;;;;;;5.35;3.75;;;;;;;0.31;52.77;100526.52;1696631;83;20991;-66
2022/03/10 05:48:07;;;;;;;7.17;4.08;;;;;;;0.29;52.36;100529.20;1704984;83;21075;-66
2022/03/10 05:50:35;;;;;;;4.45;3.47;;;;;;;0.42;52.06;100538.56;1710388;83;21066;-67
2022/03/10 05:53:03;;;;;;;6.12;3.85;;;;;;;0.63;51.92;100536.59;1693239;83;21347;-67
2022/03/10 05:55:32;;;;;;;6.97;3.98;;;;;;;0.87;51.34;100546.58;1674394;85;20936;-64
2022/03/10 05:57:59;;;;;;;4.28;3.60;;;;;;;1.19;51.12;100546.13;1684782;84;21521;-68
2022/03/10 06:00:26;;;;;;;5.37;3.70;;;;;;;1.65;50.55;100543.89;1713995;83;21090;-68
2022/03/10 06:02:53;;;;;;;5.12;3.90;;;;;;;2.15;49.67;100540.08;1703643;83;21481;-63
2022/03/10 06:05:20;;;;;;;6.25;4.05;;;;;;;2.54;48.68;100544.23;1770103;80;21256;-67
2022/03/10 06:07:48;;;;;;;5.85;4.12;;;;;;;2.89;47.57;100543.38;1744608;80;20904;-67
2022/03/10 06:10:18;;;;;;;3.95;3.55;;;;;;;2.94;46.66;100544.77;1748952;80;20968;-65
2022/03/10 06:12:49;;;;;;;5.72;4.10;;;;;;;2.76;46.33;100552.49;1743931;82;20949;-67
2022/03/10 06:15:16;;;;;;;4.12;3.60;;;;;;;2.58;46.04;100544.90;1757771;80;20987;-67
2022/03/10 06:17:43;;;;;;;5.40;4.12;;;;;;;2.18;45.91;100552.56;1747361;80;21292;-66
2022/03/10 06:20:11;;;;;;;4.42;3.80;;;;;;;1.83;46.34;100556.41;1737951;80;20894;-67
2022/03/10 06:22:40;;;;;;;6.70;3.90;;;;;;;1.58;46.76;100569.25;1741018;80;21053;-66
2022/03/10 06:25:09;;;;;;;5.42;3.98;;;;;;;1.34;47.10;100568.00;1746982;81;21031;-65
2022/03/10 06:27:39;;;;;;;4.55;3.70;;;;;;;1.28;47.49;100580.16;1761792;80;21538;-68
2022/03/10 06:30:08;;;;;;;4.37;3.98;;;;;;;1.36;48.06;100578.78;1745924;80;21886;-64
2022/03/10 06:32:35;;;;;;;5.22;3.80;;;;;;;1.41;47.92;100582.48;1740434;82;21035;-67
2022/03/10 06:35:03;;;;;;;5.28;4.03;;;;;;;1.52;47.88;100574.38;1745397;80;21058;-65
2022/03/10 06:37:31;;;;;;;7.17;4.28;;;;;;;1.86;47.91;100577.22;1749202;80;21076;-67
2022/03/10 06:39:58;;;;;;;5.35;4.03;;;;;;;2.23;47.89;100579.84;1727835;81;20998;-67
2022/03/10 06:42:25;;;;;;;5.25;4.17;;;;;;;2.62;46.97;100580.54;1754590;80;21254;-67
2022/03/10 06:44:52;;;;;;;7.47;5.28;;;;;;;2.77;45.36;100578.28;1740715;80;20849;-65
2022/03/10 06:47:19;;;;;;;6.30;4.25;;;;;;;2.70;45.14;100588.80;1736758;81;21562;-66
2022/03/10 06:49:48;;;;;;;5.70;4.55;;;;;;;2.86;45.14;100584.30;1727336;82;20938;-66
2022/03/10 06:52:15;;;;;;;12.23;5.60;;;;;;;3.06;45.02;100582.11;1725872;80;21484;-66
2022/03/10 06:54:42;;;;;;;5.95;4.40;;;;;;;3.36;44.56;100589.86;1732666;81;21512;-67
2022/03/10 06:57:09;;;;;;;5.35;4.53;;;;;;;3.42;43.74;100593.86;1723387;82;20973;-67
2022/03/10 06:59:38;;;;;;;12.33;9.45;;;;;;;3.61;43.77;100586.48;1665693;85;21034;-66
2022/03/10 07:02:05;;;;;;;7.33;5.67;;;;;;;3.79;42.96;100593.17;1729994;81;21100;-66
2022/03/10 07:04:33;;;;;;;5.60;4.35;;;;;;;3.92;42.61;100594.52;1733447;82;21531;-65
2022/03/10 07:07:00;;;;;;;4.90;3.80;;;;;;;4.00;42.74;100597.48;1731646;82;22208;-66
2022/03/10 07:09:27;;;;;;;5.42;4.17;;;;;;;4.32;42.21;100594.88;1729177;82;21514;-66
2022/03/10 07:11:55;;;;;;;5.20;4.12;;;;;;;4.68;41.68;100602.05;1732325;82;21027;-65
2022/03/10 07:14:22;;;;;;;5.20;4.05;;;;;;;5.22;41.44;100598.64;1735513;82;21488;-67
2022/03/10 07:16:49;;;;;;;7.10;5.10;;;;;;;5.88;40.45;100591.14;1727316;82;20952;-67
2022/03/10 07:19:17;;;;;;;5.28;4.20;;;;;;;6.37;39.08;100592.73;1725346;82;21277;-67
2022/03/10 07:21:44;;;;;;;4.65;4.00;;;;;;;6.78;38.25;100596.52;1733697;82;20883;-68
2022/03/10 07:24:13;;;;;;;6.47;4.15;;;;;;;7.20;37.86;100593.63;1737516;82;20914;-68
2022/03/10 07:26:42;;;;;;;5.17;4.55;;;;;;;7.81;36.47;100592.65;1730786;82;20957;-69
2022/03/10 07:29:09;;;;;;;4.87;4.37;;;;;;;8.25;35.56;100598.23;1735989;82;20985;-66
2022/03/10 07:31:36;;;;;;;6.75;5.17;;;;;;;8.47;34.45;100597.64;1734292;81;21230;-67
2022/03/10 07:34:03;;;;;;;5.08;3.98;;;;;;;8.57;34.20;100597.72;1696352;82;21001;-67
2022/03/10 07:36:32;;;;;;;6.20;4.53;;;;;;;8.85;34.04;100604.15;1724018;82;20957;-70
2022/03/10 07:39:00;;;;;;;5.53;4.55;;;;;;;9.14;33.53;100610.44;1732201;82;21535;-65
2022/03/10 07:41:26;;;;;;;4.42;4.00;;;;;;;9.43;32.94;100599.42;1734340;82;20973;-67
2022/03/10 07:43:57;;;;;;;4.25;3.85;;;;;;;9.68;32.16;100603.37;1733930;81;21222;-68
2022/03/10 07:46:27;;;;;;;6.03;4.50;;;;;;;9.80;31.41;100599.12;1724586;82;21012;-68
2022/03/10 07:48:54;;;;;;;4.25;3.83;;;;;;;9.84;31.23;100598.36;1710252;82;21054;-66
2022/03/10 07:51:21;;;;;;;4.95;3.72;;;;;;;10.06;30.42;100599.92;1716763;82;21052;-70
2022/03/10 07:53:48;;;;;;;5.97;4.30;;;;;;;10.14;30.07;100595.59;1722720;82;20982;-67
2022/03/10 07:56:16;;;;;;;6.28;4.10;;;;;;;10.23;29.69;100600.08;1720311;82;21250;-68
2022/03/10 07:58:44;;;;;;;4.15;3.62;;;;;;;10.10;29.21;100606.63;1717088;82;21543;-70
2022/03/10 08:01:13;;;;;;;5.25;3.83;;;;;;;10.14;28.81;100615.53;1721552;82;21579;-69
2022/03/10 08:03:40;;;;;;;7.03;3.25;;;;;;;10.25;28.60;100599.93;1726027;81;20973;-69
2022/03/10 08:06:09;;;;;;;4.62;4.03;;;;;;;10.19;28.63;100599.19;1718529;82;21062;-66
2022/03/10 08:08:37;;;;;;;6.25;3.72;;;;;;;10.29;28.66;100600.02;1720344;82;21253;-67
2022/03/10 08:11:06;;;;;;;6.33;4.17;;;;;;;10.48;28.19;100596.82;1725087;82;21477;-68
2022/03/10 08:13:33;;;;;;;6.15;4.28;;;;;;;10.58;28.33;100598.16;1719361;82;21112;-67
2022/03/10 08:16:01;;;;;;;4.58;4.10;;;;;;;10.86;28.01;100599.90;1718993;82;21114;-66
2022/03/10 08:18:29;;;;;;;4.45;3.67;;;;;;;11.23;27.47;100595.05;1720778;81;21046;-67
2022/03/10 08:20:59;;;;;;;6.87;3.90;;;;;;;11.39;26.52;100597.92;1719055;82;21455;-68
2022/03/10 08:23:27;;;;;;;4.53;3.67;;;;;;;11.44;26.44;100600.97;1720029;82;21095;-67
2022/03/10 08:25:55;;;;;;;4.05;3.22;;;;;;;11.55;26.24;100599.45;1722128;82;21005;-68
2022/03/10 08:28:23;;;;;;;3.98;3.58;;;;;;;10.90;26.10;100601.75;1724463;82;21128;-68
2022/03/10 08:30:50;;;;;;;4.17;3.25;;;;;;;10.76;25.35;100605.74;1716759;82;21065;-67
2022/03/10 08:33:17;;;;;;;6.20;3.08;;;;;;;10.64;25.69;100597.56;1720762;82;21855;-66
2022/03/10 08:35:44;;;;;;;3.02;2.80;;;;;;;10.66;26.29;100603.60;1714030;82;20982;-67
2022/03/10 08:38:11;;;;;;;5.00;3.60;;;;;;;10.82;25.85;100596.34;1719055;81;21019;-66
2022/03/10 08:40:38;;;;;;;3.75;3.02;;;;;;;10.70;25.32;100606.31;1714635;82;21523;-69
2022/03/10 08:43:06;;;;;;;5.15;2.75;;;;;;;10.81;25.25;100611.47;1714399;81;20970;-70
2022/03/10 08:45:33;;;;;;;4.50;3.17;;;;;;;10.41;25.31;100616.16;1730141;82;21310;-69
2022/03/10 08:48:00;;;;;;;5.15;2.67;;;;;;;10.21;25.08;100610.52;1734474;82;21027;-67
2022/03/10 08:50:27;;;;;;;4.45;3.00;;;;;;;10.03;24.27;100621.47;1728650;82;21033;-67
2022/03/10 08:52:54;;;;;;;4.90;3.42;;;;;;;9.84;24.32;100616.48;1722445;82;21015;-67
2022/03/10 08:55:22;;;;;;;3.87;2.85;;;;;;;9.86;24.48;100615.86;1732616;82;21057;-68
2022/03/10 08:57:49;;;;;;;3.37;3.05;;;;;;;9.55;24.82;100616.92;1736960;82;21321;-68
2022/03/10 09:00:18;;;;;;;4.53;2.75;;;;;;;9.01;24.98;100617.78;1733111;81;21019;-67
2022/03/10 09:02:45;;;;;;;3.52;2.40;;;;;;;8.46;25.18;100621.17;1731095;81;20904;-67
2022/03/10 09:05:13;;;;;;;5.12;2.30;;;;;;;7.77;25.52;100630.45;1742039;82;21013;-69
2022/03/10 09:07:40;;;;;;;6.37;2.27;;;;;;;7.05;25.72;100641.15;1724093;82;21026;-67
2022/03/10 09:10:09;;;;;;;3.72;2.87;;;;;;;6.58;26.35;100631.59;1727034;82;21302;-66
2022/03/10 09:12:39;;;;;;;3.40;2.90;;;;;;;5.87;27.39;100647.55;1715591;82;21462;-68
2022/03/10 09:15:08;;;;;;;3.52;2.52;;;;;;;5.43;27.88;100641.97;1714040;82;21527;-67
2022/03/10 09:17:35;;;;;;;2.17;1.77;;;;;;;5.04;28.33;100652.70;1720594;81;20944;-66
2022/03/10 09:20:08;;;;;;;6.45;2.00;;;;;;;5.00;28.38;100647.63;1720669;82;21544;-67
2022/03/10 09:22:32;;;;;;;3.58;1.82;;;;;;;5.02;28.37;100652.81;1714180;82;21197;-66
2022/03/10 09:25:02;;;;;;;4.40;2.12;;;;;;;4.96;28.57;100653.23;1732128;82;21312;-67
2022/03/10 09:27:29;;;;;;;7.20;2.40;;;;;;;4.77;28.30;100648.88;1729730;82;21029;-67
2022/03/10 09:29:58;;;;;;;6.15;2.55;;;;;;;4.54;28.95;100646.47;1734560;82;21596;-66
2022/03/10 09:32:25;;;;;;;3.35;2.80;;;;;;;4.25;29.57;100646.26;1720716;82;21084;-67
2022/03/10 09:34:54;;;;;;;2.90;2.60;;;;;;;4.12;30.24;100646.73;1723687;82;21254;-67
2022/03/10 09:37:21;;;;;;;4.20;2.52;;;;;;;3.94;30.69;100656.66;1713603;82;21960;-63
2022/03/10 09:39:49;;;;;;;2.83;2.05;;;;;;;3.73;31.00;100658.89;1728954;82;21067;-64
2022/03/10 09:42:16;;;;;;;5.00;3.45;;;;;;;3.97;31.03;100663.52;1725082;82;21064;-62
2022/03/10 09:44:43;;;;;;;5.83;2.65;;;;;;;4.19;33.48;100657.22;1723705;81;21086;-63
2022/03/10 09:47:10;;;;;;;3.55;2.58;;;;;;;4.37;32.61;100663.91;1710470;82;21496;-64
2022/03/10 09:49:39;;;;;;;3.58;2.33;;;;;;;4.62;30.74;100659.98;1749818;80;20950;-62
2022/03/10 09:52:08;;;;;;;6.83;3.12;;;;;;;4.70;30.75;100661.62;1747546;80;21581;-62
2022/03/10 09:54:36;;;;;;;3.72;2.58;;;;;;;4.52;30.32;100652.33;1761208;80;21532;-62
2022/03/10 09:57:04;;;;;;;3.25;2.30;;;;;;;4.41;30.22;100660.10;1709838;82;22347;-63
2022/03/10 09:59:32;;;;;;;2.72;2.40;;;;;;;4.36;29.97;100668.32;1719241;82;21338;-63
2022/03/10 10:02:01;;;;;;;2.20;2.00;;;;;;;4.21;29.89;100667.18;1692863;83;21020;-63
2022/03/10 10:04:29;;;;;;;3.70;2.65;;;;;;;4.04;29.98;100673.54;1676640;83;20990;-66
2022/03/10 10:07:06;;;;;;;4.70;2.20;;;;;;;3.94;30.05;100672.92;1726785;82;21478;-64
2022/03/10 10:09:42;;;;;;;2.87;1.95;;;;;;;4.16;30.11;100662.69;1722998;82;21157;-65
2022/03/10 10:12:11;;;;;;;2.87;2.37;;;;;;;5.13;29.17;100666.58;1719812;82;21258;-63
2022/03/10 10:14:42;;;;;;;2.05;1.82;;;;;;;5.72;29.16;100664.95;1752426;80;20940;-63
2022/03/10 10:17:11;;;;;;;3.22;2.30;;;;;;;6.74;28.22;100651.09;1756928;80;20923;-64
2022/03/10 10:19:40;;;;;;;2.67;1.87;;;;;;;7.16;27.48;100654.86;1740483;80;21054;-64
2022/03/10 10:22:17;;;;;;;4.08;2.00;;;;;;;7.19;26.87;100647.54;1738907;80;20955;-63
2022/03/10 10:24:59;;;;;;;3.47;2.37;;;;;;;7.06;26.16;100653.42;1755001;80;21840;-63
2022/03/10 10:27:29;;;;;;;4.50;2.00;;;;;;;6.61;26.24;100651.67;1758931;80;21038;-62
2022/03/10 10:30:05;;;;;;;4.20;2.15;;;;;;;6.18;26.01;100658.01;1744557;80;20932;-62
2022/03/10 10:32:44;;;;;;;2.30;2.00;;;;;;;5.71;26.28;100650.90;1739885;80;22525;-64
2022/03/10 10:35:20;;;;;;;3.50;2.67;;;;;;;5.28;26.81;100658.89;1759237;80;20935;-64
2022/03/10 10:37:46;;;;;;;3.08;2.17;;;;;;;5.05;27.46;100665.80;1756067;80;21300;-63
2022/03/10 10:40:12;;;;;;;3.25;2.22;;;;;;;5.08;27.80;100656.35;1745596;80;21008;-63
2022/03/10 10:42:40;;;;;;;2.90;1.98;;;;;;;5.17;27.39;100663.61;1711797;81;21468;-65
2022/03/10 10:45:36;;;;;;;2.37;2.10;;;;;;;5.11;26.87;100665.34;1743181;80;21070;-64
2022/03/10 10:48:05;;;;;;;;;;;;;;;4.95;27.03;100658.97;1771007;80;21037;-63
2022/03/10 10:50:34;;;;;;;2.20;2.00;;;;;;;5.00;27.51;100662.63;1772229;80;22255;-63
2022/03/10 10:53:01;;;;;;;3.33;2.30;;;;;;;5.22;27.20;100652.25;1765831;80;21027;-65
2022/03/10 10:55:41;;;;;;;2.65;1.90;;;;;;;5.33;26.88;100652.81;1760349;80;21054;-65
2022/03/10 10:58:09;;;;;;;3.02;2.42;;;;;;;5.33;26.92;100653.66;1742344;80;21050;-65
2022/03/10 11:00:42;;;;;;;2.50;2.30;;;;;;;5.25;26.83;100659.11;1741097;80;20888;-62
2022/03/10 11:03:25;;;;;;;3.35;2.15;;;;;;;5.09;26.80;100669.04;1756966;80;21246;-64
2022/03/10 11:05:53;;;;;;;3.12;2.20;;;;;;;4.88;26.94;100656.40;1754332;80;21066;-63
2022/03/10 11:08:23;;;;;;;2.30;1.87;;;;;;;4.77;27.14;100656.78;1754228;80;21615;-64
2022/03/10 11:10:50;;;;;;;2.20;2.00;;;;;;;4.89;27.75;100660.73;1767881;80;21103;-64
2022/03/10 11:13:18;;;;;;;4.08;2.20;;;;;;;5.18;27.80;100664.45;1742089;80;21042;-63
2022/03/10 11:15:45;;;;;;;4.72;2.80;;;;;;;5.17;27.28;100666.24;1748690;81;21243;-64
2022/03/10 11:18:13;;;;;;;5.35;2.42;;;;;;;5.18;27.31;100665.30;1764431;80;20983;-65
2022/03/10 11:20:44;;;;;;;2.30;2.10;;;;;;;5.12;27.31;100663.55;1768364;80;21153;-63
2022/03/10 11:23:44;;;;;;;2.62;2.40;;;;;;;5.10;27.17;100661.51;1754012;80;20904;-62
2022/03/10 11:26:48;;;;;;;3.83;2.85;;;;;;;5.04;27.22;100657.97;1746819;81;20992;-64
2022/03/10 11:29:22;;;;;;;4.12;2.65;;;;;;;4.66;27.39;100669.84;1746804;80;22213;-62
2022/03/10 11:31:50;;;;;;;3.47;2.27;;;;;;;4.30;27.55;100663.95;1768818;80;20983;-62
2022/03/10 11:34:52;;;;;;;4.00;2.40;;;;;;;4.05;28.01;100673.08;1743630;80;21088;-61
2022/03/10 11:37:45;;;;;;;4.58;2.80;;;;;;;4.00;28.39;100675.16;1683456;83;21112;-63